Time;durP1;ratioP1;P1;durP2;ratioP2;P2;SDS_P1;SDS_P2;PMS_P1;PMS_P2;Temp;Humidity;BMP_temperature;BMP_pressure;BME280_temperature;BME280_humidity;BME280_pressure;Samples;Min_cycle;Max_cycle;Signal;HPM_P1;HPM_P2
2023/03/19 00:00:16;;;;;;;2.50;1.35;;;10.20;97.90;;;9.88;71.43;96926.19;5005116;28;20497;-37
2023/03/19 00:02:48;;;;;;;2.17;1.30;;;10.20;97.50;;;9.93;71.33;96929.47;5005319;28;20048;-37
2023/03/19 00:05:14;;;;;;;3.00;1.20;;;10.30;97.40;;;9.98;71.45;96924.88;5003428;28;20039;-37
2023/03/19 00:07:40;;;;;;;2.38;1.45;;;10.40;97.50;;;10.00;71.83;96936.19;5007059;28;20399;-38
2023/03/19 00:10:06;;;;;;;3.35;1.83;;;10.40;97.60;;;10.03;72.93;96932.56;5006979;28;20478;-37
2023/03/19 00:12:32;;;;;;;6.18;2.47;;;10.40;97.90;;;10.06;73.81;96929.81;5012857;28;20038;-37
2023/03/19 00:14:57;;;;;;;4.60;2.80;;;10.40;98.10;;;10.11;74.79;96931.31;5010029;28;20052;-40
2023/03/19 00:17:23;;;;;;;6.45;3.05;;;10.50;98.40;;;10.13;76.06;96929.47;5017147;28;20053;-37
2023/03/19 00:19:49;;;;;;;5.55;3.30;;;10.50;98.60;;;10.13;77.44;96926.00;5019285;28;20363;-37
2023/03/19 00:22:15;;;;;;;5.30;2.70;;;10.50;98.90;;;10.13;76.51;96929.47;5020022;28;20667;-37
2023/03/19 00:24:41;;;;;;;6.53;3.10;;;10.50;98.70;;;10.13;77.11;96929.47;5010903;28;20060;-37
2023/03/19 00:27:06;;;;;;;6.97;3.08;;;10.50;98.90;;;10.09;78.14;96933.19;5004193;28;22931;-37
2023/03/19 00:29:32;;;;;;;6.40;2.95;;;10.50;99.10;;;10.03;78.94;96920.28;5008443;28;20122;-37
2023/03/19 00:31:58;;;;;;;8.13;3.28;;;10.50;99.30;;;9.98;80.73;96929.28;5002990;28;20116;-37
2023/03/19 00:34:23;;;;;;;7.22;3.60;;;10.40;99.60;;;9.87;81.47;96925.34;5005463;28;20083;-37
2023/03/19 00:36:49;;;;;;;6.35;3.15;;;10.30;99.70;;;9.83;81.82;96928.13;5006426;28;23692;-37
2023/03/19 00:39:15;;;;;;;4.25;2.58;;;10.30;99.80;;;9.81;82.03;96924.72;5005373;28;20496;-37
2023/03/19 00:41:41;;;;;;;3.03;2.00;;;10.30;99.80;;;9.74;81.32;96922.34;5000446;28;20029;-37
2023/03/19 00:44:06;;;;;;;3.97;2.05;;;10.20;99.70;;;9.79;80.85;96935.31;5000030;28;20025;-37
2023/03/19 00:46:32;;;;;;;4.65;1.83;;;10.30;99.70;;;9.84;78.78;96935.13;5004350;28;20116;-37
2023/03/19 00:48:58;;;;;;;4.80;1.70;;;10.30;99.30;;;9.86;77.82;96934.13;5007547;28;20447;-38
2023/03/19 00:51:24;;;;;;;2.38;1.50;;;10.30;99.00;;;9.87;78.55;96935.88;5006472;28;20395;-37
2023/03/19 00:53:51;;;;;;;2.13;1.50;;;10.30;99.20;;;9.89;78.47;96936.66;5004972;28;20040;-38
2023/03/19 00:56:17;;;;;;;3.03;1.58;;;10.30;99.20;;;9.90;78.61;96935.72;5005281;28;20083;-38
2023/03/19 00:58:44;;;;;;;3.50;2.10;;;10.30;99.30;;;9.91;79.19;96934.81;5003560;28;20103;-37
2023/03/19 01:01:14;;;;;;;5.68;2.47;;;10.30;99.50;;;9.93;80.50;96932.13;5007503;28;20025;-37
2023/03/19 01:03:40;;;;;;;4.25;2.80;;;10.30;99.70;;;9.92;82.54;96933.03;5003961;28;20427;-37
2023/03/19 01:06:06;;;;;;;4.13;2.45;;;10.30;99.90;;;9.87;82.81;96927.09;4990580;28;20041;-37
2023/03/19 01:08:32;;;;;;;5.93;2.90;;;10.30;99.90;;;9.95;82.66;96943.44;5006963;28;20033;-37
2023/03/19 01:11:15;;;;;;;5.55;2.90;;;10.40;99.90;;;9.98;82.97;96945.06;5014369;28;20047;-37
2023/03/19 01:13:41;;;;;;;6.60;3.20;;;10.40;99.90;;;10.00;83.22;96943.25;5004726;28;20053;-37
2023/03/19 01:16:08;;;;;;;7.90;2.92;;;10.40;99.90;;;10.02;83.89;96947.53;5005349;28;20167;-37
2023/03/19 01:18:34;;;;;;;7.68;3.38;;;10.40;99.90;;;10.02;84.93;96946.69;5008464;28;20083;-37
2023/03/19 01:21:00;;;;;;;7.25;3.38;;;10.40;99.90;;;10.01;86.27;96951.06;5011431;28;20029;-37
2023/03/19 01:23:27;;;;;;;7.78;3.75;;;10.40;99.90;;;10.00;87.28;96951.16;4999183;28;20119;-38
2023/03/19 01:25:53;;;;;;;7.03;3.55;;;10.40;99.90;;;9.98;88.28;96953.84;4985381;28;20044;-37
2023/03/19 01:28:19;;;;;;;6.90;3.83;;;10.40;99.90;;;9.97;89.43;96967.94;5007054;28;20413;-37
2023/03/19 01:30:45;;;;;;;8.65;4.00;;;10.40;99.90;;;9.97;89.69;96961.81;5005606;28;20033;-37
2023/03/19 01:33:10;;;;;;;5.47;3.38;;;10.40;99.90;;;9.99;88.61;96963.44;5006934;28;20030;-37
2023/03/19 01:35:36;;;;;;;5.30;2.83;;;10.40;99.90;;;10.03;88.03;96967.69;5002578;28;20036;-37
2023/03/19 01:38:02;;;;;;;3.25;2.20;;;10.40;99.90;;;10.07;85.84;96966.63;4987880;28;20025;-37
2023/03/19 01:40:28;;;;;;;6.82;2.30;;;10.50;99.90;;;10.02;84.20;96958.06;4997745;28;20048;-37
2023/03/19 01:43:37;;;;;;;3.70;1.90;;;10.60;99.90;;;10.25;81.42;96991.34;4981657;28;20041;-37
2023/03/19 01:46:35;;;;;;;5.38;2.00;;;10.70;99.90;;;10.37;75.50;96995.28;5005435;28;20033;-37
2023/03/19 01:49:05;;;;;;;4.03;1.73;;;10.70;98.90;;;10.57;69.87;96988.28;5004608;28;20561;-37
2023/03/19 01:51:39;;;;;;;4.45;2.00;;;10.90;98.10;;;10.61;68.97;96989.88;4991146;28;20029;-37
2023/03/19 01:54:09;;;;;;;3.40;1.67;;;10.90;98.00;;;10.64;69.26;96989.72;5003570;28;20572;-37
2023/03/19 01:59:20;;;;;;;6.53;2.08;;;11.10;97.20;;;10.73;68.41;96991.13;5000875;28;20072;-50
2023/03/19 02:01:54;;;;;;;4.18;1.83;;;11.10;97.40;;;10.74;68.25;96992.84;5006087;28;20029;-49
2023/03/19 02:04:20;;;;;;;2.60;1.50;;;11.10;97.40;;;10.71;69.18;96993.81;5011504;28;20734;-50
2023/03/19 02:06:46;;;;;;;4.32;2.00;;;11.10;97.60;;;10.70;71.60;96998.25;5018811;28;20450;-49
2023/03/19 02:09:14;;;;;;;7.63;2.40;;;11.10;98.00;;;10.68;75.70;96996.59;5031756;28;20132;-49
2023/03/19 02:11:40;;;;;;;3.95;1.90;;;11.10;99.00;;;10.67;78.60;96992.25;5042135;28;20032;-50
2023/03/19 02:14:08;;;;;;;4.07;2.00;;;11.10;99.70;;;10.62;80.79;96979.28;5035914;28;20043;-47
2023/03/19 02:16:34;;;;;;;5.13;1.88;;;11.10;99.90;;;10.54;83.30;96970.84;5036725;28;20029;-49
2023/03/19 02:19:00;;;;;;;3.85;1.98;;;11.10;99.90;;;10.64;91.06;96992.38;5030347;28;20361;-51
2023/03/19 02:21:26;;;;;;;6.03;1.90;;;11.00;99.90;;;10.50;100.00;97004.38;5038013;28;20473;-50
2023/03/19 02:24:16;;;;;;;3.38;1.95;;;11.00;99.90;;;10.39;100.00;97018.94;5029590;28;20036;-49
2023/03/19 02:26:43;;;;;;;4.28;2.35;;;10.90;99.90;;;10.17;100.00;97017.16;5031529;28;20029;-47
2023/03/19 02:29:09;;;;;;;3.75;2.08;;;10.70;99.90;;;9.95;100.00;97019.81;5034502;28;20062;-50
2023/03/19 02:31:35;;;;;;;2.20;1.75;;;10.40;99.90;;;9.75;100.00;97021.47;5033297;28;20021;-48
2023/03/19 02:34:10;;;;;;;3.47;1.70;;;10.20;99.90;;;9.64;100.00;97014.94;5035469;28;20463;-50
2023/03/19 02:36:53;;;;;;;2.53;1.60;;;10.10;99.90;;;9.49;100.00;97004.09;5020320;28;20055;-48
2023/03/19 02:39:37;;;;;;;2.65;1.50;;;9.90;99.90;;;9.32;100.00;96980.19;5024196;28;20052;-48
2023/03/19 02:42:04;;;;;;;3.22;1.90;;;9.90;99.90;;;9.34;100.00;96987.09;5027085;28;20588;-49
2023/03/19 02:44:29;;;;;;;1.98;1.67;;;9.80;99.90;;;9.29;100.00;96986.41;5036935;28;20073;-48
2023/03/19 02:46:55;;;;;;;2.20;1.60;;;9.80;99.90;;;9.25;100.00;96987.47;5034835;28;20508;-47
2023/03/19 02:49:21;;;;;;;4.30;1.67;;;9.70;99.90;;;9.20;100.00;96988.56;5025541;28;20042;-48
2023/03/19 02:51:47;;;;;;;1.52;1.30;;;9.60;99.90;;;9.18;100.00;96992.09;5023348;28;20042;-47
2023/03/19 02:54:13;;;;;;;1.58;1.30;;;9.60;99.90;;;9.20;100.00;96999.94;5024732;28;20049;-48
2023/03/19 02:56:39;;;;;;;2.33;1.48;;;9.60;99.90;;;9.16;100.00;96998.34;5019049;28;20480;-48
2023/03/19 02:59:05;;;;;;;1.85;1.60;;;9.60;99.90;;;9.14;100.00;96995.75;5023825;28;20049;-49
2023/03/19 03:01:31;;;;;;;2.85;2.03;;;9.60;99.90;;;9.10;100.00;96994.16;5022346;28;20017;-45
2023/03/19 03:03:57;;;;;;;2.75;1.75;;;9.50;99.90;;;9.10;100.00;97001.22;5021384;28;20047;-47
2023/03/19 03:06:22;;;;;;;2.50;1.90;;;9.50;99.90;;;9.06;100.00;97002.22;5024790;28;20036;-48
2023/03/19 03:08:48;;;;;;;2.42;1.67;;;9.50;99.90;;;9.04;100.00;97006.69;5023922;28;20755;-46
2023/03/19 03:11:14;;;;;;;4.88;2.25;;;9.50;99.90;;;9.01;100.00;97001.53;5027075;28;20035;-48
2023/03/19 03:13:39;;;;;;;3.30;1.95;;;9.40;99.90;;;8.98;100.00;97006.00;5030046;28;20032;-47
2023/03/19 03:16:06;;;;;;;2.35;1.80;;;9.40;99.90;;;8.91;100.00;96996.59;5027343;28;20556;-48
2023/03/19 03:18:31;;;;;;;2.72;1.73;;;9.40;99.90;;;8.95;100.00;97005.25;5026525;28;20420;-48
2023/03/19 03:20:57;;;;;;;2.53;1.80;;;9.40;99.90;;;8.92;100.00;97003.59;5029768;28;20032;-46
2023/03/19 03:23:23;;;;;;;2.92;1.90;;;9.40;99.90;;;8.88;100.00;97004.63;5026141;28;20036;-49
2023/03/19 03:25:51;;;;;;;2.83;2.00;;;9.30;99.90;;;8.84;100.00;96997.75;5018353;28;23200;-46
2023/03/19 03:28:17;;;;;;;2.40;1.60;;;9.30;99.90;;;8.81;100.00;96997.88;5020434;28;20044;-49
2023/03/19 03:30:44;;;;;;;3.45;2.05;;;9.30;99.90;;;8.79;100.00;96999.69;5022703;28;20558;-48
2023/03/19 03:33:10;;;;;;;2.75;1.75;;;9.20;99.90;;;8.71;100.00;96991.22;5033254;28;20154;-49
2023/03/19 03:35:36;;;;;;;3.33;1.80;;;9.20;99.90;;;8.74;100.00;97001.63;5024331;28;20029;-49
2023/03/19 03:38:03;;;;;;;3.70;2.10;;;9.20;99.90;;;8.73;100.00;97002.53;5032243;28;20029;-49
2023/03/19 03:40:28;;;;;;;2.83;2.05;;;9.20;99.90;;;8.72;100.00;97004.31;5027672;28;20376;-45
2023/03/19 03:42:54;;;;;;;3.55;2.08;;;9.20;99.90;;;8.72;100.00;97008.69;5027155;28;20119;-49
2023/03/19 03:45:20;;;;;;;2.70;2.10;;;9.20;99.90;;;8.72;100.00;97003.44;5029310;28;20045;-48
2023/03/19 03:47:46;;;;;;;3.05;2.00;;;9.20;99.90;;;8.70;100.00;97008.75;5031982;28;20615;-48
2023/03/19 03:50:12;;;;;;;2.85;2.17;;;9.20;99.90;;;8.69;100.00;97011.47;5029161;28;20029;-48
2023/03/19 03:52:39;;;;;;;3.35;2.00;;;9.20;99.90;;;8.68;100.00;97013.22;5028316;28;20549;-45
2023/03/19 03:55:06;;;;;;;3.40;1.92;;;9.10;99.90;;;8.65;100.00;97015.97;5032766;28;20489;-48
2023/03/19 03:57:32;;;;;;;3.55;1.83;;;9.10;99.90;;;8.68;100.00;97015.00;5028929;28;20118;-50
2023/03/19 03:59:58;;;;;;;3.90;2.38;;;9.20;99.90;;;8.70;100.00;97013.16;5031739;28;20121;-46
2023/03/19 04:02:24;;;;;;;4.07;2.42;;;9.20;99.90;;;8.72;100.00;97016.59;5026154;28;20033;-49
2023/03/19 04:04:50;;;;;;;6.53;2.90;;;9.20;99.90;;;8.76;100.00;97020.84;5029234;28;20041;-47
2023/03/19 04:07:16;;;;;;;5.28;2.50;;;9.20;99.90;;;8.70;100.00;97013.16;5037677;28;20459;-46
2023/03/19 04:09:42;;;;;;;2.75;2.25;;;9.20;99.90;;;8.76;100.00;97018.22;5025917;28;20029;-49
2023/03/19 04:12:08;;;;;;;3.20;2.50;;;9.20;99.90;;;8.75;100.00;97019.97;5031040;28;20041;-49
2023/03/19 04:14:34;;;;;;;3.58;2.50;;;9.20;99.90;;;8.75;100.00;97021.75;5031816;28;20052;-49
2023/03/19 04:17:00;;;;;;;4.50;2.83;;;9.20;99.90;;;8.72;100.00;97027.09;5029694;28;20029;-48
2023/03/19 04:19:26;;;;;;;2.88;2.25;;;9.20;99.90;;;8.71;100.00;97022.78;5032875;28;20021;-46
2023/03/19 04:21:52;;;;;;;3.05;2.00;;;9.20;99.90;;;8.73;100.00;97031.47;5031189;28;20033;-46
2023/03/19 04:24:18;;;;;;;3.72;2.58;;;9.20;99.90;;;8.73;100.00;97032.31;5026954;28;20261;-44
2023/03/19 04:26:45;;;;;;;5.03;2.40;;;9.20;99.90;;;8.73;100.00;97031.47;5025816;28;20598;-45
2023/03/19 04:29:11;;;;;;;4.10;2.10;;;9.20;99.90;;;8.70;100.00;97028.94;5032778;28;20120;-44
2023/03/19 04:31:37;;;;;;;3.03;2.10;;;9.20;99.90;;;8.70;100.00;97031.56;5034875;28;20025;-46
2023/03/19 04:34:03;;;;;;;2.47;2.00;;;9.20;99.90;;;8.69;100.00;97032.50;5033314;28;20056;-50
2023/03/19 04:36:29;;;;;;;4.00;2.22;;;9.20;99.90;;;8.70;100.00;97037.66;5034240;28;20519;-47
2023/03/19 04:38:55;;;;;;;3.15;2.25;;;9.20;99.90;;;8.72;100.00;97038.50;5029899;28;20029;-49
2023/03/19 04:41:21;;;;;;;4.88;2.30;;;9.20;99.90;;;8.74;100.00;97036.69;5030618;28;20382;-49
2023/03/19 04:43:47;;;;;;;3.13;2.05;;;9.20;99.90;;;8.75;100.00;97042.78;5025695;28;20485;-50
2023/03/19 04:46:12;;;;;;;4.32;2.40;;;9.20;99.90;;;8.74;100.00;97041.94;5034550;28;20039;-44
2023/03/19 04:48:38;;;;;;;5.32;2.10;;;9.20;99.90;;;8.75;100.00;97045.41;5028990;28;20820;-45
2023/03/19 04:51:07;;;;;;;5.15;2.22;;;9.20;99.90;;;8.74;100.00;97043.69;5036475;28;20033;-45
2023/03/19 04:53:33;;;;;;;3.38;2.10;;;9.20;99.90;;;8.73;100.00;97042.84;5031644;28;20439;-46
2023/03/19 04:55:59;;;;;;;4.25;2.40;;;9.20;99.90;;;8.71;100.00;97049.91;5033336;28;20040;-45
2023/03/19 04:58:25;;;;;;;6.25;2.45;;;9.20;99.90;;;8.70;100.00;97047.34;5034478;28;20032;-45
2023/03/19 05:00:51;;;;;;;4.57;2.47;;;9.20;99.90;;;8.68;100.00;97050.00;5032952;28;20037;-45
2023/03/19 05:03:17;;;;;;;4.35;2.35;;;9.20;99.90;;;8.70;100.00;97058.69;5038405;28;20040;-47
2023/03/19 05:05:42;;;;;;;4.22;2.00;;;9.20;99.90;;;8.73;100.00;97057.75;5030084;28;20481;-47
2023/03/19 05:08:08;;;;;;;4.85;2.35;;;9.20;99.90;;;8.68;100.00;97050.00;5040310;28;20033;-47
2023/03/19 05:10:36;;;;;;;2.67;2.22;;;9.20;99.90;;;8.72;100.00;97067.41;5034631;28;20040;-48
2023/03/19 05:13:02;;;;;;;4.28;2.20;;;9.20;99.90;;;8.73;100.00;97069.13;5035440;28;20051;-45
2023/03/19 05:15:28;;;;;;;3.30;2.30;;;9.20;99.90;;;8.70;100.00;97069.22;5038633;28;20043;-47
2023/03/19 05:17:54;;;;;;;4.40;2.45;;;9.20;99.90;;;8.72;100.00;97066.53;5036924;28;20032;-46
2023/03/19 05:20:20;;;;;;;4.25;2.60;;;9.20;99.90;;;8.71;100.00;97065.69;5037454;28;20036;-47
2023/03/19 05:22:46;;;;;;;5.68;2.55;;;9.20;99.90;;;8.68;100.00;97068.41;5037736;28;20094;-45
2023/03/19 05:25:12;;;;;;;4.68;2.20;;;9.20;99.90;;;8.65;100.00;97072.91;5036874;28;20044;-46
2023/03/19 05:27:38;;;;;;;3.92;2.28;;;9.10;99.90;;;8.49;100.00;97044.56;5028646;28;20037;-46
2023/03/19 05:30:05;;;;;;;2.95;2.10;;;9.10;99.90;;;8.62;100.00;97071.28;5035197;28;20032;-46
2023/03/19 05:32:32;;;;;;;5.68;2.55;;;9.10;99.90;;;8.59;100.00;97069.59;5041294;28;20477;-46
2023/03/19 05:34:57;;;;;;;3.30;2.13;;;9.10;99.90;;;8.54;100.00;97058.41;5028076;28;20041;-48
2023/03/19 05:37:24;;;;;;;4.40;2.20;;;9.10;99.90;;;8.56;100.00;97072.34;5039316;28;20399;-46
2023/03/19 05:39:50;;;;;;;3.63;2.17;;;9.10;99.90;;;8.55;100.00;97073.25;5035613;28;20029;-47
2023/03/19 05:42:16;;;;;;;3.08;2.22;;;9.00;99.90;;;8.56;100.00;97074.97;5036903;28;20030;-46
2023/03/19 05:44:42;;;;;;;3.92;2.42;;;9.00;99.90;;;8.56;100.00;97071.47;5033733;28;20079;-48
2023/03/19 05:47:10;;;;;;;5.05;2.40;;;9.00;99.90;;;8.54;100.00;97070.66;5038829;28;20033;-46
2023/03/19 05:49:36;;;;;;;3.65;2.30;;;9.00;99.90;;;8.54;100.00;97078.53;5030430;28;20124;-46
2023/03/19 05:52:02;;;;;;;4.18;2.40;;;9.00;99.90;;;8.53;100.00;97082.94;5038915;28;20119;-47
2023/03/19 05:54:27;;;;;;;3.78;2.40;;;9.00;99.90;;;8.56;100.00;97084.59;5039367;28;20071;-45
2023/03/19 05:56:53;;;;;;;3.70;2.38;;;9.00;99.90;;;8.53;100.00;97085.59;5032552;28;20056;-46
2023/03/19 05:59:19;;;;;;;3.38;2.40;;;9.00;99.90;;;8.54;100.00;97092.56;5034324;28;21101;-51
2023/03/19 06:01:45;;;;;;;3.80;2.40;;;9.10;99.90;;;8.57;100.00;97088.97;5030202;28;20230;-48
2023/03/19 06:04:10;;;;;;;4.75;2.47;;;9.10;99.90;;;8.57;100.00;97084.56;5029227;28;20124;-46
2023/03/19 06:06:36;;;;;;;3.58;2.40;;;9.10;99.90;;;8.61;100.00;97095.81;5034214;28;20033;-47
2023/03/19 06:09:02;;;;;;;3.22;2.00;;;9.10;99.90;;;8.54;100.00;97081.19;5030480;28;20028;-46
2023/03/19 06:11:28;;;;;;;4.88;2.30;;;9.10;99.90;;;8.67;100.00;97100.00;5037664;28;20447;-46
2023/03/19 06:13:53;;;;;;;3.03;2.10;;;9.10;99.90;;;8.72;100.00;97103.34;5031506;28;20048;-47
2023/03/19 06:16:19;;;;;;;4.35;1.92;;;9.20;99.90;;;8.75;100.00;97108.50;5035387;28;20028;-46
2023/03/19 06:18:46;;;;;;;2.92;2.05;;;9.20;99.90;;;8.78;100.00;97101.38;5032982;28;20035;-48
2023/03/19 06:21:11;;;;;;;3.10;2.10;;;9.30;99.90;;;8.85;100.00;97103.81;5038944;28;20021;-46
2023/03/19 06:23:37;;;;;;;4.15;2.00;;;9.30;99.90;;;8.89;100.00;97105.41;5034929;28;20106;-48
2023/03/19 06:26:04;;;;;;;3.53;1.77;;;9.40;99.90;;;8.96;100.00;97109.53;5036374;28;20457;-45
2023/03/19 06:28:30;;;;;;;2.28;1.67;;;9.40;99.90;;;9.03;100.00;97104.94;5030452;28;20048;-46
2023/03/19 06:30:56;;;;;;;2.90;1.50;;;9.50;99.90;;;9.09;100.00;97102.94;5022240;28;20385;-46
2023/03/19 06:33:24;;;;;;;3.40;1.45;;;9.60;99.90;;;9.17;100.00;97110.56;5031195;28;20158;-50
2023/03/19 06:35:50;;;;;;;4.22;1.25;;;9.60;99.90;;;9.26;100.00;97109.34;5031032;28;20036;-46
2023/03/19 06:38:16;;;;;;;1.73;1.10;;;9.70;99.90;;;9.33;100.00;97111.72;5035823;28;20061;-47
2023/03/19 06:40:41;;;;;;;1.95;1.48;;;9.80;99.90;;;9.43;100.00;97111.38;5026168;28;20036;-49
2023/03/19 06:43:07;;;;;;;1.88;1.20;;;9.90;99.90;;;9.47;100.00;97111.19;5032432;28;20473;-47
2023/03/19 06:45:33;;;;;;;2.15;1.40;;;9.90;99.90;;;9.51;100.00;97104.03;5031607;28;20037;-46
2023/03/19 06:47:59;;;;;;;3.50;1.55;;;10.00;99.90;;;9.51;100.00;97106.66;5035428;28;20047;-48
2023/03/19 06:50:26;;;;;;;2.15;1.52;;;10.00;99.90;;;9.54;100.00;97103.94;5039232;28;20036;-48
2023/03/19 06:52:51;;;;;;;4.38;1.67;;;10.00;99.90;;;9.55;100.00;97106.50;5033343;28;20192;-48
2023/03/19 06:55:19;;;;;;;3.88;1.73;;;10.00;99.90;;;9.60;100.00;97113.38;5037834;28;20362;-49
2023/03/19 06:57:49;;;;;;;5.45;2.13;;;10.00;99.90;;;9.62;100.00;97112.41;5034953;28;20043;-48
2023/03/19 07:00:16;;;;;;;3.00;2.03;;;10.10;99.90;;;9.68;100.00;97111.31;5037341;28;20040;-48
2023/03/19 07:02:42;;;;;;;3.33;2.30;;;10.10;99.90;;;9.69;100.00;97116.53;5032084;28;23517;-50
2023/03/19 07:05:08;;;;;;;4.93;2.50;;;10.10;99.90;;;9.76;100.00;97111.88;5030449;28;20714;-47
2023/03/19 07:07:34;;;;;;;4.07;1.92;;;10.20;99.90;;;9.82;100.00;97116.06;5031791;28;20091;-46
2023/03/19 07:10:00;;;;;;;5.15;2.25;;;10.20;99.90;;;9.79;100.00;97095.94;5029330;28;20060;-45
2023/03/19 07:12:26;;;;;;;4.95;2.13;;;10.30;99.90;;;9.98;100.00;97119.81;5035105;28;20241;-47
2023/03/19 07:14:55;;;;;;;3.70;1.83;;;10.40;99.90;;;10.03;100.00;97117.88;5030677;28;20775;-46
2023/03/19 07:17:22;;;;;;;4.50;2.00;;;10.40;99.90;;;10.09;100.00;97122.88;5023923;28;20040;-46
2023/03/19 07:19:47;;;;;;;1.92;1.55;;;10.50;99.90;;;10.15;100.00;97120.94;5031261;28;20025;-50
2023/03/19 07:22:13;;;;;;;6.28;2.00;;;10.60;99.90;;;10.18;100.00;97118.19;5035348;28;20082;-47
2023/03/19 07:24:39;;;;;;;3.95;1.70;;;10.60;99.90;;;10.12;100.00;97095.53;5023998;28;20060;-47
2023/03/19 07:27:05;;;;;;;3.53;1.95;;;10.60;99.90;;;10.28;100.00;97130.94;5030606;28;20807;-46
2023/03/19 07:29:30;;;;;;;3.92;2.17;;;10.70;99.90;;;10.30;100.00;97128.19;5032501;28;20033;-46
2023/03/19 07:31:56;;;;;;;3.75;2.10;;;10.70;99.90;;;10.31;100.00;97128.19;5030736;28;20037;-47
2023/03/19 07:34:22;;;;;;;4.82;2.20;;;10.80;99.90;;;10.38;100.00;97127.94;5030777;28;20103;-46
2023/03/19 07:36:48;;;;;;;3.80;1.70;;;10.90;99.90;;;10.48;100.00;97131.91;5018668;28;20120;-50
2023/03/19 07:39:14;;;;;;;3.97;2.00;;;10.90;99.90;;;10.56;100.00;97123.69;5019536;28;20029;-46
2023/03/19 07:41:40;;;;;;;2.67;1.75;;;11.00;99.90;;;10.64;100.00;97134.78;5023683;28;20029;-48
2023/03/19 07:44:06;;;;;;;4.50;2.00;;;11.10;99.90;;;10.72;100.00;97134.47;5019046;28;20430;-46
2023/03/19 07:46:32;;;;;;;3.25;1.67;;;11.20;99.90;;;10.78;100.00;97137.69;5030782;28;20451;-47
2023/03/19 07:48:57;;;;;;;2.70;1.88;;;11.20;99.90;;;10.65;100.00;97110.13;5028045;28;20090;-47
2023/03/19 07:51:23;;;;;;;3.90;1.80;;;11.30;99.90;;;10.92;100.00;97139.75;5025777;28;20158;-49
2023/03/19 07:53:49;;;;;;;4.60;2.08;;;11.40;99.90;;;10.95;100.00;97139.63;5026125;28;20036;-45
2023/03/19 07:56:15;;;;;;;6.47;2.10;;;11.40;99.90;;;10.98;100.00;97147.44;5031615;28;20033;-47
2023/03/19 07:58:41;;;;;;;2.25;1.73;;;11.40;99.90;;;11.00;100.00;97142.06;5036445;23;21488;-40
2023/03/19 08:01:07;;;;;;;3.13;1.75;;;11.50;99.90;;;11.05;100.00;97150.66;5014988;28;21172;-40
2023/03/19 08:03:33;;;;;;;4.05;1.80;;;11.50;99.90;;;11.08;100.00;97143.44;5014616;28;20397;-40
2023/03/19 08:05:58;;;;;;;3.28;1.90;;;11.50;99.90;;;11.21;100.00;97151.69;5005407;28;20837;-40
2023/03/19 08:08:24;;;;;;;2.85;1.55;;;11.60;99.90;;;11.28;100.00;97141.72;5005857;28;20068;-40
2023/03/19 08:10:53;;;;;;;3.15;2.00;;;11.70;99.90;;;11.32;100.00;97142.44;5008309;28;20030;-40
2023/03/19 08:13:19;;;;;;;2.50;1.88;;;11.80;99.90;;;11.44;100.00;97141.91;5015698;28;20034;-40
2023/03/19 08:15:45;;;;;;;3.10;1.77;;;11.80;99.90;;;11.54;100.00;97150.28;5003321;28;20083;-40
2023/03/19 08:18:11;;;;;;;4.20;1.70;;;11.90;99.90;;;11.58;100.00;97128.94;5008700;28;20469;-40
2023/03/19 08:20:36;;;;;;;3.50;1.50;;;12.10;99.90;;;11.73;100.00;97137.94;4996587;28;20496;-40
2023/03/19 08:23:03;;;;;;;2.65;1.90;;;12.10;99.90;;;11.89;100.00;97143.38;5013437;28;20037;-40
2023/03/19 08:25:31;;;;;;;3.38;1.55;;;12.30;99.90;;;11.97;100.00;97138.66;5012436;28;20061;-38
2023/03/19 08:27:58;;;;;;;4.15;1.83;;;12.30;99.90;;;12.03;100.00;97141.00;5009575;28;20113;-40
2023/03/19 08:30:24;;;;;;;2.17;1.50;;;12.40;99.90;;;12.12;100.00;97137.06;5013961;28;20033;-40
2023/03/19 08:32:49;;;;;;;2.58;1.55;;;12.50;99.90;;;12.25;100.00;97139.97;5010894;28;20045;-40
2023/03/19 08:35:15;;;;;;;2.83;1.70;;;12.70;99.90;;;12.31;100.00;97144.13;5010500;28;20165;-40
2023/03/19 08:37:41;;;;;;;3.13;1.80;;;12.70;99.90;;;12.40;100.00;97155.13;5012942;28;20076;-40
2023/03/19 08:40:08;;;;;;;3.42;1.67;;;12.80;99.90;;;12.55;100.00;97152.66;5009236;28;20124;-38
2023/03/19 08:42:34;;;;;;;3.72;1.40;;;12.90;99.90;;;12.68;100.00;97151.13;5012546;28;20091;-37
2023/03/19 08:44:59;;;;;;;2.60;1.35;;;13.00;99.90;;;12.73;100.00;97146.47;5005342;28;20041;-40
2023/03/19 08:47:25;;;;;;;1.65;1.20;;;13.20;99.90;;;12.88;100.00;97147.47;5013304;28;20050;-37
2023/03/19 08:49:52;;;;;;;3.80;1.52;;;13.30;99.90;;;12.92;100.00;97148.19;5014975;28;20124;-40
2023/03/19 08:52:18;;;;;;;4.20;1.52;;;13.30;99.90;;;12.94;100.00;97143.69;5019133;28;20129;-40
2023/03/19 08:54:44;;;;;;;2.95;1.60;;;13.30;99.90;;;12.94;100.00;97155.13;5012459;28;20103;-37
2023/03/19 08:57:10;;;;;;;3.42;1.83;;;13.20;99.90;;;12.85;100.00;97157.34;5011659;28;20059;-38
2023/03/19 08:59:36;;;;;;;3.20;1.88;;;13.10;99.90;;;12.79;100.00;97158.53;5016890;28;20488;-40
2023/03/19 09:02:02;;;;;;;2.75;1.75;;;13.00;99.90;;;12.71;100.00;97168.66;5008753;28;20037;-40
2023/03/19 09:04:28;;;;;;;3.17;1.67;;;13.00;99.90;;;12.64;100.00;97168.09;5012455;28;20670;-39
2023/03/19 09:06:54;;;;;;;6.03;1.77;;;12.90;99.90;;;12.59;100.00;97167.44;5008678;28;20044;-40
2023/03/19 09:09:23;;;;;;;1.85;1.45;;;12.80;99.90;;;12.54;100.00;97175.63;5014153;28;20064;-40
2023/03/19 09:11:49;;;;;;;2.90;1.55;;;12.80;99.90;;;12.59;100.00;97180.66;4993429;28;20032;-40
2023/03/19 09:14:16;;;;;;;4.90;1.75;;;12.90;99.90;;;12.69;100.00;97166.06;5007097;28;20037;-40
2023/03/19 09:16:43;;;;;;;4.25;1.73;;;13.10;99.90;;;12.89;100.00;97167.72;5011956;28;20389;-40
2023/03/19 09:19:09;;;;;;;3.13;1.52;;;13.20;99.90;;;13.05;100.00;97165.16;5016013;28;20107;-38
2023/03/19 09:21:35;;;;;;;3.25;1.80;;;13.40;99.90;;;13.22;100.00;97171.38;5013913;28;20302;-40
2023/03/19 09:24:02;;;;;;;2.78;2.22;;;13.50;99.90;;;13.28;98.46;97169.28;5006596;28;20124;-40
2023/03/19 09:26:28;;;;;;;3.45;1.50;;;13.60;99.90;;;13.35;100.00;97161.91;5015510;28;20021;-37
2023/03/19 09:28:53;;;;;;;3.28;1.70;;;13.70;99.90;;;13.50;99.87;97160.25;5010993;28;20052;-39
2023/03/19 09:31:19;;;;;;;3.65;2.10;;;13.90;99.90;;;13.58;93.73;97166.00;5018886;28;20505;-38
2023/03/19 09:33:45;;;;;;;3.15;2.10;;;14.00;99.90;;;13.75;94.40;97170.41;5016071;28;20033;-38
2023/03/19 09:36:11;;;;;;;3.28;2.00;;;14.10;99.90;;;13.83;92.71;97170.00;5014477;28;20470;-38
2023/03/19 09:38:36;;;;;;;5.45;2.60;;;14.20;99.90;;;13.91;89.15;97168.66;5002902;28;20064;-38
2023/03/19 09:41:34;;;;;;;4.35;1.90;;;14.30;99.90;;;13.91;89.84;97168.66;5016241;28;21199;-38
2023/03/19 09:44:09;;;;;;;5.22;2.40;;;14.20;99.90;;;13.85;92.44;97153.06;5012791;28;20044;-38
2023/03/19 09:46:57;;;;;;;3.85;1.77;;;14.20;99.90;;;13.65;81.80;97164.72;4997873;28;20040;-38
2023/03/19 09:49:29;;;;;;;3.35;1.55;;;14.10;99.90;;;13.62;86.36;97151.66;4996804;28;20510;-39
2023/03/19 09:52:48;;;;;;;3.03;1.42;;;14.10;99.90;;;13.88;81.52;97163.50;5000878;28;20044;-38
2023/03/19 09:55:20;;;;;;;4.10;1.85;;;14.30;99.90;;;14.15;79.33;97165.59;5014970;28;20549;-38
2023/03/19 09:57:47;;;;;;;6.03;1.88;;;14.60;99.90;;;14.38;74.04;97166.97;5015512;28;20040;-38
2023/03/19 10:00:26;;;;;;;2.75;1.48;;;14.80;99.90;;;14.56;71.60;97162.44;5018503;28;20259;-38
2023/03/19 10:03:46;;;;;;;4.85;1.50;;;15.00;99.90;;;14.69;71.75;97163.47;4997628;28;20037;-38
2023/03/19 10:06:26;;;;;;;2.65;1.35;;;15.10;99.90;;;15.03;63.95;97158.00;5019353;28;20031;-39
2023/03/19 10:09:20;;;;;;;2.75;1.50;;;15.50;99.90;;;15.30;62.10;97154.66;5017701;28;20124;-39
2023/03/19 10:12:22;;;;;;;4.43;1.52;;;15.80;99.90;;;15.53;63.94;97153.28;5012837;28;20040;-38
2023/03/19 10:15:27;;;;;;;3.47;1.50;;;16.10;99.90;;;15.97;59.99;97147.03;5016793;28;20037;-38
2023/03/19 10:17:57;;;;;;;2.47;1.63;;;16.30;99.90;;;15.98;61.21;97146.94;5014799;28;20026;-39
2023/03/19 10:20:28;;;;;;;2.10;1.50;;;16.50;99.90;;;16.11;58.76;97146.16;4984910;28;20033;-39
2023/03/19 10:23:22;;;;;;;3.20;1.77;;;16.50;99.90;;;15.87;59.17;97144.09;5015621;28;20306;-39
2023/03/19 10:25:52;;;;;;;2.67;1.30;;;16.30;99.90;;;15.66;58.62;97149.75;5013646;28;20535;-39